www.cux-wetter.de
Wetterdaten: Samstag, 27.02.2010
Datum Zeit Temp. A. Feuchte A. Luftdruck Regen Wind Richtung Richtung Sonnenschein Solar Taupunkt Windchill Windben
27.02.2010 00:00 4,8 C 81 % 990,5 hPa 0,0 l/m 33,1 km/h (5 Bft) W-SW 250 0 min 0 W/m 1,8 C -7,4 C 33,1 km/h (5 Bft)
27.02.2010 00:05 4,8 C 81 % 990,5 hPa 0,0 l/m 30,4 km/h (5 Bft) W-SW 240 0 min 0 W/m 1,8 C -6,8 C 30,4 km/h (5 Bft)
27.02.2010 00:09 4,8 C 80 % 990,5 hPa 0,0 l/m 30,5 km/h (5 Bft) W-SW 250 0 min 0 W/m 1,6 C -6,8 C 30,5 km/h (5 Bft)
27.02.2010 00:14 4,8 C 80 % 990,5 hPa 0,0 l/m 29,6 km/h (5 Bft) W-SW 240 0 min 0 W/m 1,6 C -6,6 C 29,6 km/h (5 Bft)
27.02.2010 00:19 4,8 C 80 % 990,5 hPa 0,0 l/m 31,6 km/h (5 Bft) W-SW 250 0 min 0 W/m 1,6 C -7,1 C 31,6 km/h (5 Bft)
27.02.2010 00:24 4,8 C 80 % 990,5 hPa 0,0 l/m 35,5 km/h (5 Bft) W-SW 245 0 min 0 W/m 1,6 C -7,9 C 35,5 km/h (5 Bft)
27.02.2010 00:29 4,8 C 80 % 990,5 hPa 0,0 l/m 36,2 km/h (5 Bft) W-SW 250 0 min 0 W/m 1,6 C -8,1 C 36,2 km/h (5 Bft)
27.02.2010 00:35 4,9 C 80 % 990,5 hPa 0,0 l/m 29,7 km/h (5 Bft) W-SW 250 0 min 0 W/m 1,7 C -6,4 C 29,7 km/h (5 Bft)
27.02.2010 00:40 4,8 C 80 % 990,5 hPa 0,0 l/m 27,8 km/h (5 Bft) W-SW 250 0 min 0 W/m 1,6 C -6,1 C 27,8 km/h (5 Bft)
27.02.2010 00:44 4,9 C 80 % 990,5 hPa 0,0 l/m 26,9 km/h (4 Bft) W-SW 245 0 min 0 W/m 1,7 C -5,7 C 26,9 km/h (4 Bft)
27.02.2010 00:49 4,9 C 80 % 990,5 hPa 0,0 l/m 27,9 km/h (5 Bft) W-SW 245 0 min 0 W/m 1,7 C -5,9 C 27,9 km/h (5 Bft)
27.02.2010 00:54 4,9 C 80 % 991,5 hPa 0,0 l/m 38,2 km/h (6 Bft) W-SW 240 0 min 0 W/m 1,7 C -8,3 C 38,2 km/h (6 Bft)
27.02.2010 00:59 4,9 C 80 % 991,5 hPa 0,0 l/m 26,3 km/h (4 Bft) W-SW 250 0 min 0 W/m 1,7 C -5,5 C 26,3 km/h (4 Bft)
27.02.2010 01:04 4,9 C 80 % 991,5 hPa 0,0 l/m 27,5 km/h (5 Bft) W-SW 250 0 min 0 W/m 1,7 C -5,8 C 27,5 km/h (5 Bft)
27.02.2010 01:09 4,9 C 80 % 991,5 hPa 0,0 l/m 24,5 km/h (4 Bft) W-SW 250 0 min 0 W/m 1,7 C -4,9 C 24,5 km/h (4 Bft)
27.02.2010 01:14 4,9 C 80 % 991,5 hPa 0,0 l/m 26,1 km/h (4 Bft) W-SW 240 0 min 0 W/m 1,7 C -5,4 C 26,1 km/h (4 Bft)
27.02.2010 01:20 4,9 C 80 % 990,5 hPa 0,0 l/m 21,8 km/h (4 Bft) W-SW 245 0 min 0 W/m 1,7 C -4,0 C 21,8 km/h (4 Bft)
27.02.2010 01:25 4,9 C 80 % 990,5 hPa 0,0 l/m 30,7 km/h (5 Bft) W-SW 245 0 min 0 W/m 1,7 C -6,7 C 30,7 km/h (5 Bft)
27.02.2010 01:29 4,9 C 80 % 990,5 hPa 0,0 l/m 32,4 km/h (5 Bft) W-SW 240 0 min 0 W/m 1,7 C -7,1 C 32,4 km/h (5 Bft)
27.02.2010 01:34 5,1 C 80 % 991,5 hPa 0,0 l/m 32,7 km/h (5 Bft) W-SW 250 0 min 0 W/m 1,9 C -6,9 C 32,7 km/h (5 Bft)
27.02.2010 01:39 5,2 C 79 % 991,5 hPa 0,0 l/m 30,8 km/h (5 Bft) W-SW 250 0 min 0 W/m 1,9 C -6,3 C 30,8 km/h (5 Bft)
27.02.2010 01:44 5,2 C 79 % 991,5 hPa 0,0 l/m 25,8 km/h (4 Bft) W-SW 245 0 min 0 W/m 1,9 C -4,9 C 25,8 km/h (4 Bft)
27.02.2010 01:50 5,2 C 79 % 991,5 hPa 0,0 l/m 28,0 km/h (5 Bft) W-SW 250 0 min 0 W/m 1,9 C -5,6 C 28,0 km/h (5 Bft)
27.02.2010 01:55 5,2 C 79 % 991,5 hPa 0,0 l/m 26,8 km/h (4 Bft) W-SW 250 0 min 0 W/m 1,9 C -5,2 C 26,8 km/h (4 Bft)
27.02.2010 01:59 5,2 C 79 % 991,5 hPa 0,0 l/m 32,0 km/h (5 Bft) W-SW 245 0 min 0 W/m 1,9 C -6,6 C 32,0 km/h (5 Bft)
27.02.2010 02:05 5,2 C 78 % 991,5 hPa 0,0 l/m 33,0 km/h (5 Bft) W-SW 245 0 min 0 W/m 1,7 C -6,8 C 33,0 km/h (5 Bft)
27.02.2010 02:09 5,3 C 78 % 991,5 hPa 0,0 l/m 37,0 km/h (5 Bft) W-SW 250 0 min 0 W/m 1,8 C -7,5 C 37,0 km/h (5 Bft)
27.02.2010 02:14 5,3 C 77 % 991,5 hPa 0,0 l/m 29,9 km/h (5 Bft) W-SW 250 0 min 0 W/m 1,6 C -5,9 C 29,9 km/h (5 Bft)
27.02.2010 02:19 5,4 C 76 % 991,5 hPa 0,0 l/m 41,1 km/h (6 Bft) W-SW 250 0 min 0 W/m 1,5 C -8,1 C 41,1 km/h (6 Bft)
27.02.2010 02:24 5,4 C 77 % 991,5 hPa 0,0 l/m 37,5 km/h (5 Bft) W-SW 250 0 min 0 W/m 1,7 C -7,5 C 37,5 km/h (5 Bft)
27.02.2010 02:29 5,3 C 76 % 991,5 hPa 0,0 l/m 35,6 km/h (5 Bft) W-SW 250 0 min 0 W/m 1,4 C -7,2 C 35,6 km/h (5 Bft)
27.02.2010 02:34 5,2 C 76 % 991,5 hPa 0,0 l/m 42,4 km/h (6 Bft) W-SW 255 0 min 0 W/m 1,3 C -8,6 C 42,4 km/h (6 Bft)
27.02.2010 02:39 5,2 C 77 % 991,5 hPa 0,0 l/m 42,6 km/h (6 Bft) W-SW 255 0 min 0 W/m 1,5 C -8,7 C 42,6 km/h (6 Bft)
27.02.2010 02:40 5,2 C 77 % 991,5 hPa 0,0 l/m 42,6 km/h (6 Bft) W-SW 255 0 min 0 W/m 1,5 C -8,7 C 42,6 km/h (6 Bft)
27.02.2010 02:44 5,2 C 77 % 991,5 hPa 0,0 l/m 45,7 km/h (6 Bft) W-SW 255 0 min 0 W/m 1,5 C -9,1 C 45,7 km/h (6 Bft)
27.02.2010 02:49 5,2 C 77 % 990,5 hPa 0,0 l/m 38,2 km/h (6 Bft) W-SW 255 0 min 0 W/m 1,5 C -7,9 C 38,2 km/h (6 Bft)
27.02.2010 02:55 5,1 C 77 % 990,5 hPa 0,0 l/m 41,4 km/h (6 Bft) W-SW 245 0 min 0 W/m 1,4 C -8,6 C 41,4 km/h (6 Bft)
27.02.2010 02:59 4,9 C 77 % 990,5 hPa 0,0 l/m 39,7 km/h (6 Bft) W-SW 255 0 min 0 W/m 1,2 C -8,6 C 39,7 km/h (6 Bft)
27.02.2010 03:04 4,9 C 78 % 990,5 hPa 0,0 l/m 41,3 km/h (6 Bft) W 260 0 min 0 W/m 1,4 C -8,9 C 41,3 km/h (6 Bft)
27.02.2010 03:10 4,9 C 78 % 990,5 hPa 0,0 l/m 34,8 km/h (5 Bft) W-SW 255 0 min 0 W/m 1,4 C -7,7 C 34,8 km/h (5 Bft)
27.02.2010 03:14 4,9 C 78 % 990,5 hPa 0,0 l/m 37,4 km/h (5 Bft) W-SW 255 0 min 0 W/m 1,4 C -8,2 C 37,4 km/h (5 Bft)
27.02.2010 03:19 4,9 C 79 % 990,5 hPa 0,0 l/m 44,5 km/h (6 Bft) W-SW 255 0 min 0 W/m 1,6 C -9,4 C 44,5 km/h (6 Bft)
27.02.2010 03:24 4,8 C 80 % 990,5 hPa 0,0 l/m 35,8 km/h (5 Bft) W-SW 245 0 min 0 W/m 1,6 C -8,0 C 35,8 km/h (5 Bft)
27.02.2010 03:29 4,7 C 80 % 990,5 hPa 0,0 l/m 39,6 km/h (6 Bft) W-SW 250 0 min 0 W/m 1,6 C -8,9 C 39,6 km/h (6 Bft)
27.02.2010 03:34 4,6 C 81 % 991,5 hPa 0,0 l/m 34,0 km/h (5 Bft) W-SW 245 0 min 0 W/m 1,6 C -7,9 C 34,0 km/h (5 Bft)
27.02.2010 03:40 4,6 C 82 % 990,5 hPa 0,0 l/m 34,6 km/h (5 Bft) W-SW 250 0 min 0 W/m 1,8 C -8,0 C 34,6 km/h (5 Bft)
27.02.2010 03:44 4,5 C 82 % 991,5 hPa 0,3 l/m 36,7 km/h (5 Bft) W-SW 245 0 min 0 W/m 1,7 C -8,6 C 36,7 km/h (5 Bft)
27.02.2010 03:49 4,5 C 82 % 991,5 hPa 0,0 l/m 37,9 km/h (6 Bft) W-SW 245 0 min 0 W/m 1,7 C -8,9 C 37,9 km/h (6 Bft)
27.02.2010 03:54 4,5 C 82 % 991,5 hPa 0,0 l/m 41,0 km/h (6 Bft) W-SW 245 0 min 0 W/m 1,7 C -9,4 C 41,0 km/h (6 Bft)
27.02.2010 03:59 4,4 C 83 % 991,5 hPa 0,0 l/m 36,4 km/h (5 Bft) W-SW 250 0 min 0 W/m 1,8 C -8,7 C 36,4 km/h (5 Bft)
27.02.2010 04:04 4,4 C 83 % 991,5 hPa 0,0 l/m 39,8 km/h (6 Bft) W-SW 245 0 min 0 W/m 1,8 C -9,4 C 39,8 km/h (6 Bft)
27.02.2010 04:09 4,4 C 83 % 991,5 hPa 0,0 l/m 37,8 km/h (5 Bft) W-SW 255 0 min 0 W/m 1,8 C -9,0 C 37,8 km/h (5 Bft)
27.02.2010 04:15 4,3 C 83 % 991,5 hPa 0,0 l/m 43,0 km/h (6 Bft) W-SW 250 0 min 0 W/m 1,7 C -10,1 C 43,0 km/h (6 Bft)
27.02.2010 04:19 4,4 C 83 % 991,5 hPa 0,0 l/m 44,8 km/h (6 Bft) W-SW 255 0 min 0 W/m 1,8 C -10,2 C 44,8 km/h (6 Bft)
27.02.2010 04:24 4,4 C 83 % 991,5 hPa 0,0 l/m 46,3 km/h (6 Bft) W-SW 255 0 min 0 W/m 1,8 C -10,4 C 46,3 km/h (6 Bft)
27.02.2010 04:29 4,4 C 83 % 991,5 hPa 0,0 l/m 37,5 km/h (5 Bft) W-SW 250 0 min 0 W/m 1,8 C -8,9 C 37,5 km/h (5 Bft)
27.02.2010 04:34 4,3 C 83 % 991,5 hPa 0,0 l/m 40,1 km/h (6 Bft) W-SW 245 0 min 0 W/m 1,7 C -9,6 C 40,1 km/h (6 Bft)
27.02.2010 04:39 4,3 C 83 % 991,5 hPa 0,0 l/m 41,3 km/h (6 Bft) W-SW 250 0 min 0 W/m 1,7 C -9,8 C 41,3 km/h (6 Bft)
27.02.2010 04:45 4,3 C 83 % 991,5 hPa 0,0 l/m 49,0 km/h (7 Bft) W 265 0 min 0 W/m 1,7 C -10,9 C 49,0 km/h (7 Bft)
27.02.2010 04:49 4,3 C 84 % 991,5 hPa 0,0 l/m 42,5 km/h (6 Bft) W-SW 250 0 min 0 W/m 1,8 C -10,0 C 42,5 km/h (6 Bft)
27.02.2010 04:54 4,3 C 84 % 991,5 hPa 0,0 l/m 44,0 km/h (6 Bft) W-SW 250 0 min 0 W/m 1,8 C -10,2 C 44,0 km/h (6 Bft)
27.02.2010 04:59 4,2 C 85 % 991,5 hPa 0,0 l/m 43,6 km/h (6 Bft) W 260 0 min 0 W/m 1,9 C -10,3 C 43,6 km/h (6 Bft)
27.02.2010 05:04 4,1 C 85 % 991,5 hPa 0,0 l/m 48,3 km/h (6 Bft) W-SW 250 0 min 0 W/m 1,8 C -11,2 C 48,3 km/h (6 Bft)
27.02.2010 05:09 4,0 C 85 % 991,5 hPa 0,0 l/m 43,8 km/h (6 Bft) W-SW 255 0 min 0 W/m 1,7 C -10,7 C 43,8 km/h (6 Bft)
27.02.2010 05:14 4,0 C 86 % 991,5 hPa 0,0 l/m 44,4 km/h (6 Bft) W-SW 255 0 min 0 W/m 1,9 C -10,7 C 44,4 km/h (6 Bft)
27.02.2010 05:20 4,0 C 86 % 991,5 hPa 0,0 l/m 37,0 km/h (5 Bft) W-SW 255 0 min 0 W/m 1,9 C -9,4 C 37,0 km/h (5 Bft)
27.02.2010 05:24 3,9 C 87 % 991,5 hPa 0,0 l/m 44,5 km/h (6 Bft) W-SW 250 0 min 0 W/m 1,9 C -10,9 C 44,5 km/h (6 Bft)
27.02.2010 05:29 3,9 C 87 % 991,5 hPa 0,0 l/m 41,4 km/h (6 Bft) W-SW 255 0 min 0 W/m 1,9 C -10,4 C 41,4 km/h (6 Bft)
27.02.2010 05:34 3,9 C 87 % 991,5 hPa 0,3 l/m 40,6 km/h (6 Bft) W-SW 255 0 min 0 W/m 1,9 C -10,3 C 40,6 km/h (6 Bft)
27.02.2010 05:39 3,9 C 87 % 992,5 hPa 0,0 l/m 41,5 km/h (6 Bft) W 260 0 min 0 W/m 1,9 C -10,4 C 41,5 km/h (6 Bft)
27.02.2010 05:45 3,9 C 87 % 992,5 hPa 0,0 l/m 41,6 km/h (6 Bft) W-SW 250 0 min 0 W/m 1,9 C -10,4 C 41,6 km/h (6 Bft)
27.02.2010 05:49 3,9 C 87 % 992,5 hPa 0,0 l/m 40,1 km/h (6 Bft) W-SW 250 0 min 0 W/m 1,9 C -10,2 C 40,1 km/h (6 Bft)
27.02.2010 05:54 3,8 C 87 % 992,5 hPa 0,0 l/m 43,5 km/h (6 Bft) W-SW 255 0 min 0 W/m 1,8 C -10,9 C 43,5 km/h (6 Bft)
27.02.2010 05:59 3,8 C 87 % 991,5 hPa 0,0 l/m 40,3 km/h (6 Bft) W-SW 250 0 min 0 W/m 1,8 C -10,4 C 40,3 km/h (6 Bft)
27.02.2010 06:04 3,8 C 87 % 992,5 hPa 0,0 l/m 46,2 km/h (6 Bft) W-SW 255 0 min 0 W/m 1,8 C -11,3 C 46,2 km/h (6 Bft)
27.02.2010 06:09 3,8 C 88 % 992,5 hPa 0,0 l/m 41,3 km/h (6 Bft) W 260 0 min 0 W/m 2,0 C -10,5 C 41,3 km/h (6 Bft)
27.02.2010 06:14 3,8 C 87 % 992,5 hPa 0,0 l/m 36,9 km/h (5 Bft) W-SW 255 0 min 0 W/m 1,8 C -9,7 C 36,9 km/h (5 Bft)
27.02.2010 06:19 3,9 C 87 % 992,5 hPa 0,0 l/m 42,6 km/h (6 Bft) W-SW 250 0 min 0 W/m 1,9 C -10,6 C 42,6 km/h (6 Bft)
27.02.2010 06:25 3,9 C 87 % 992,5 hPa 0,3 l/m 46,3 km/h (6 Bft) W 260 0 min 0 W/m 1,9 C -11,2 C 46,3 km/h (6 Bft)
27.02.2010 06:29 3,9 C 87 % 992,5 hPa 0,0 l/m 45,7 km/h (6 Bft) W-SW 250 0 min 0 W/m 1,9 C -11,1 C 45,7 km/h (6 Bft)
27.02.2010 06:34 3,9 C 87 % 992,5 hPa 0,0 l/m 40,7 km/h (6 Bft) W 260 0 min 0 W/m 1,9 C -10,3 C 40,7 km/h (6 Bft)
27.02.2010 06:39 3,9 C 87 % 992,5 hPa 0,0 l/m 38,2 km/h (6 Bft) W 265 0 min 0 W/m 1,9 C -9,8 C 38,2 km/h (6 Bft)
27.02.2010 06:44 3,9 C 87 % 992,5 hPa 0,0 l/m 40,8 km/h (6 Bft) W-SW 255 0 min 0 W/m 1,9 C -10,3 C 40,8 km/h (6 Bft)
27.02.2010 06:49 3,9 C 87 % 992,5 hPa 0,0 l/m 42,8 km/h (6 Bft) W 260 0 min 0 W/m 1,9 C -10,6 C 42,8 km/h (6 Bft)
27.02.2010 06:55 3,9 C 87 % 992,5 hPa 0,0 l/m 43,2 km/h (6 Bft) W 270 0 min 0 W/m 1,9 C -10,7 C 43,2 km/h (6 Bft)
27.02.2010 06:59 3,9 C 87 % 992,5 hPa 0,0 l/m 42,2 km/h (6 Bft) W-SW 255 0 min 0 W/m 1,9 C -10,5 C 42,2 km/h (6 Bft)
27.02.2010 07:05 3,9 C 88 % 992,5 hPa 0,0 l/m 50,3 km/h (7 Bft) W 260 0 min 0 W/m 2,1 C -11,7 C 50,3 km/h (7 Bft)
27.02.2010 07:09 3,9 C 87 % 992,5 hPa 0,0 l/m 43,6 km/h (6 Bft) W 265 0 min 0 W/m 1,9 C -10,8 C 43,6 km/h (6 Bft)
27.02.2010 07:14 3,9 C 87 % 992,5 hPa 0,0 l/m 39,4 km/h (6 Bft) W-SW 255 0 min 0 W/m 1,9 C -10,0 C 39,4 km/h (6 Bft)
27.02.2010 07:19 3,8 C 88 % 992,5 hPa 0,3 l/m 43,2 km/h (6 Bft) W 260 0 min 0 W/m 2,0 C -10,9 C 43,2 km/h (6 Bft)
27.02.2010 07:24 3,8 C 88 % 992,5 hPa 0,0 l/m 47,2 km/h (6 Bft) W 260 0 min 0 W/m 2,0 C -11,5 C 47,2 km/h (6 Bft)
27.02.2010 07:29 3,8 C 88 % 992,5 hPa 0,3 l/m 42,8 km/h (6 Bft) W 260 0 min 0 W/m 2,0 C -10,8 C 42,8 km/h (6 Bft)
27.02.2010 07:34 3,8 C 88 % 992,5 hPa 0,0 l/m 42,8 km/h (6 Bft) W 260 0 min 0 W/m 2,0 C -10,8 C 42,8 km/h (6 Bft)
27.02.2010 07:39 3,9 C 87 % 992,5 hPa 0,0 l/m 38,9 km/h (6 Bft) W 265 0 min 0 W/m 1,9 C -9,9 C 38,9 km/h (6 Bft)
27.02.2010 07:44 3,9 C 87 % 993,5 hPa 0,0 l/m 43,1 km/h (6 Bft) W 260 0 min 0 W/m 1,9 C -10,7 C 43,1 km/h (6 Bft)
27.02.2010 07:49 4,0 C 86 % 993,5 hPa 0,3 l/m 40,2 km/h (6 Bft) W-SW 255 0 min 0 W/m 1,9 C -10,0 C 40,2 km/h (6 Bft)
27.02.2010 07:54 4,0 C 86 % 993,5 hPa 0,0 l/m 41,1 km/h (6 Bft) W 260 0 min 0 W/m 1,9 C -10,2 C 41,1 km/h (6 Bft)
27.02.2010 07:55 4,0 C 86 % 993,5 hPa 0,0 l/m 41,1 km/h (6 Bft) W 260 0 min 0 W/m 1,9 C -10,2 C 41,1 km/h (6 Bft)
27.02.2010 08:00 4,1 C 85 % 993,5 hPa 0,0 l/m 37,6 km/h (5 Bft) W 260 0 min 0 W/m 1,8 C -9,4 C 37,6 km/h (5 Bft)
27.02.2010 08:04 4,1 C 85 % 993,5 hPa 0,0 l/m 42,7 km/h (6 Bft) W 265 0 min 0 W/m 1,8 C -10,3 C 42,7 km/h (6 Bft)
27.02.2010 08:09 4,2 C 85 % 993,5 hPa 0,0 l/m 43,1 km/h (6 Bft) W 265 0 min 0 W/m 1,9 C -10,2 C 43,1 km/h (6 Bft)
27.02.2010 08:10 4,2 C 85 % 993,5 hPa 0,0 l/m 43,1 km/h (6 Bft) W 265 0 min 0 W/m 1,9 C -10,2 C 43,1 km/h (6 Bft)
27.02.2010 08:14 4,2 C 84 % 993,5 hPa 0,0 l/m 43,4 km/h (6 Bft) W 260 0 min 0 W/m 1,7 C -10,3 C 43,4 km/h (6 Bft)
27.02.2010 08:20 4,2 C 84 % 993,5 hPa 0,0 l/m 41,3 km/h (6 Bft) W 260 0 min 0 W/m 1,7 C -9,9 C 41,3 km/h (6 Bft)
27.02.2010 08:24 4,3 C 84 % 993,5 hPa 0,0 l/m 46,3 km/h (6 Bft) W 265 0 min 0 W/m 1,8 C -10,6 C 46,3 km/h (6 Bft)
27.02.2010 08:29 4,3 C 83 % 993,5 hPa 0,0 l/m 39,5 km/h (6 Bft) W-SW 255 0 min 0 W/m 1,7 C -9,5 C 39,5 km/h (6 Bft)
27.02.2010 08:34 4,3 C 83 % 993,5 hPa 0,0 l/m 40,4 km/h (6 Bft) W 260 0 min 0 W/m 1,7 C -9,6 C 40,4 km/h (6 Bft)
27.02.2010 08:39 4,3 C 83 % 994,5 hPa 0,0 l/m 40,9 km/h (6 Bft) W 260 0 min 0 W/m 1,7 C -9,7 C 40,9 km/h (6 Bft)
27.02.2010 08:45 4,3 C 82 % 994,5 hPa 0,0 l/m 35,2 km/h (5 Bft) W 260 0 min 0 W/m 1,5 C -8,6 C 35,2 km/h (5 Bft)
27.02.2010 08:49 4,4 C 82 % 994,5 hPa 0,0 l/m 37,6 km/h (5 Bft) W 260 0 min 0 W/m 1,6 C -9,0 C 37,6 km/h (5 Bft)
27.02.2010 08:54 4,3 C 82 % 994,5 hPa 0,0 l/m 36,7 km/h (5 Bft) W 260 0 min 0 W/m 1,5 C -8,9 C 36,7 km/h (5 Bft)
27.02.2010 08:59 4,3 C 81 % 994,5 hPa 0,0 l/m 37,3 km/h (5 Bft) W-SW 255 0 min 0 W/m 1,3 C -9,0 C 37,3 km/h (5 Bft)
27.02.2010 09:04 4,3 C 81 % 994,5 hPa 0,0 l/m 38,7 km/h (6 Bft) W 270 0 min 0 W/m 1,3 C -9,3 C 38,7 km/h (6 Bft)
27.02.2010 09:09 4,4 C 81 % 994,5 hPa 0,0 l/m 34,4 km/h (5 Bft) W 265 0 min 0 W/m 1,4 C -8,3 C 34,4 km/h (5 Bft)
27.02.2010 09:14 4,5 C 81 % 994,5 hPa 0,0 l/m 37,4 km/h (5 Bft) W 270 0 min 0 W/m 1,5 C -8,8 C 37,4 km/h (5 Bft)
27.02.2010 09:19 4,5 C 81 % 994,5 hPa 0,0 l/m 41,3 km/h (6 Bft) W 260 0 min 0 W/m 1,5 C -9,5 C 41,3 km/h (6 Bft)
27.02.2010 09:24 4,5 C 80 % 994,5 hPa 0,0 l/m 35,1 km/h (5 Bft) W 265 0 min 0 W/m 1,4 C -8,3 C 35,1 km/h (5 Bft)
27.02.2010 09:29 4,5 C 80 % 994,5 hPa 0,0 l/m 33,5 km/h (5 Bft) W-SW 255 0 min 0 W/m 1,4 C -7,9 C 33,5 km/h (5 Bft)
27.02.2010 09:34 4,5 C 81 % 994,5 hPa 0,0 l/m 30,3 km/h (5 Bft) W 270 0 min 0 W/m 1,5 C -7,2 C 30,3 km/h (5 Bft)
27.02.2010 09:39 4,5 C 81 % 994,5 hPa 0,0 l/m 41,9 km/h (6 Bft) W 265 0 min 0 W/m 1,5 C -9,6 C 41,9 km/h (6 Bft)
27.02.2010 09:44 4,5 C 80 % 994,5 hPa 0,0 l/m 36,2 km/h (5 Bft) W-SW 255 0 min 0 W/m 1,4 C -8,5 C 36,2 km/h (5 Bft)
27.02.2010 09:49 4,5 C 80 % 994,5 hPa 0,0 l/m 35,6 km/h (5 Bft) W 265 0 min 0 W/m 1,4 C -8,4 C 35,6 km/h (5 Bft)
27.02.2010 09:54 4,5 C 80 % 994,5 hPa 0,0 l/m 34,6 km/h (5 Bft) W-SW 255 0 min 0 W/m 1,4 C -8,2 C 34,6 km/h (5 Bft)
27.02.2010 09:59 4,5 C 81 % 994,5 hPa 0,0 l/m 37,2 km/h (5 Bft) W-SW 255 0 min 0 W/m 1,5 C -8,7 C 37,2 km/h (5 Bft)
27.02.2010 10:04 4,4 C 81 % 994,5 hPa 0,0 l/m 34,0 km/h (5 Bft) W-SW 255 0 min 0 W/m 1,4 C -8,2 C 34,0 km/h (5 Bft)
27.02.2010 10:09 4,5 C 80 % 994,5 hPa 0,0 l/m 39,2 km/h (6 Bft) W 260 0 min 0 W/m 1,4 C -9,1 C 39,2 km/h (6 Bft)
27.02.2010 10:14 4,5 C 81 % 994,5 hPa 0,0 l/m 39,5 km/h (6 Bft) W-SW 255 0 min 0 W/m 1,5 C -9,2 C 39,5 km/h (6 Bft)
27.02.2010 10:20 4,5 C 81 % 994,5 hPa 0,0 l/m 40,5 km/h (6 Bft) W 260 0 min 0 W/m 1,5 C -9,4 C 40,5 km/h (6 Bft)
27.02.2010 10:25 4,5 C 81 % 995,5 hPa 0,0 l/m 33,4 km/h (5 Bft) W-SW 255 0 min 0 W/m 1,5 C -7,9 C 33,4 km/h (5 Bft)
27.02.2010 10:29 4,5 C 81 % 995,5 hPa 0,0 l/m 31,3 km/h (5 Bft) W 260 0 min 0 W/m 1,5 C -7,4 C 31,3 km/h (5 Bft)
27.02.2010 10:34 4,5 C 81 % 995,5 hPa 0,0 l/m 36,0 km/h (5 Bft) W 260 0 min 0 W/m 1,5 C -8,5 C 36,0 km/h (5 Bft)
27.02.2010 10:39 4,7 C 81 % 995,5 hPa 0,0 l/m 33,4 km/h (5 Bft) W 260 0 min 0 W/m 1,7 C -7,6 C 33,4 km/h (5 Bft)
27.02.2010 10:44 4,6 C 81 % 995,5 hPa 0,0 l/m 28,4 km/h (5 Bft) W 260 0 min 0 W/m 1,6 C -6,5 C 28,4 km/h (5 Bft)
27.02.2010 10:49 4,7 C 80 % 995,5 hPa 0,0 l/m 33,6 km/h (5 Bft) W 260 0 min 0 W/m 1,6 C -7,7 C 33,6 km/h (5 Bft)
27.02.2010 10:55 4,7 C 80 % 995,5 hPa 0,0 l/m 37,0 km/h (5 Bft) W 260 0 min 0 W/m 1,6 C -8,4 C 37,0 km/h (5 Bft)
27.02.2010 10:59 5,1 C 80 % 995,5 hPa 0,0 l/m 49,9 km/h (7 Bft) W 270 0 min 0 W/m 1,9 C -9,8 C 49,9 km/h (7 Bft)
27.02.2010 11:04 5,2 C 80 % 995,5 hPa 0,0 l/m 30,3 km/h (5 Bft) W 260 0 min 0 W/m 2,0 C -6,2 C 30,3 km/h (5 Bft)
27.02.2010 11:10 5,6 C 79 % 995,5 hPa 0,0 l/m 34,9 km/h (5 Bft) W 265 0 min 0 W/m 2,3 C -6,7 C 34,9 km/h (5 Bft)
27.02.2010 11:14 6,0 C 79 % 995,5 hPa 0,0 l/m 38,2 km/h (6 Bft) W-SW 255 0 min 0 W/m 2,6 C -6,7 C 38,2 km/h (6 Bft)
27.02.2010 11:19 6,4 C 77 % 995,5 hPa 0,0 l/m 37,9 km/h (6 Bft) W 260 0 min 0 W/m 2,7 C -6,1 C 37,9 km/h (6 Bft)
27.02.2010 11:25 6,7 C 76 % 995,5 hPa 0,0 l/m 37,9 km/h (6 Bft) W 260 0 min 0 W/m 2,8 C -5,6 C 37,9 km/h (6 Bft)
27.02.2010 11:29 7,1 C 75 % 995,5 hPa 0,0 l/m 34,4 km/h (5 Bft) W 265 0 min 0 W/m 3,0 C -4,4 C 34,4 km/h (5 Bft)
27.02.2010 11:34 7,2 C 74 % 995,5 hPa 0,0 l/m 39,1 km/h (6 Bft) W 265 0 min 0 W/m 2,9 C -5,1 C 39,1 km/h (6 Bft)
27.02.2010 11:39 7,2 C 73 % 995,5 hPa 0,0 l/m 41,6 km/h (6 Bft) W 265 0 min 0 W/m 2,7 C -5,5 C 41,6 km/h (6 Bft)
27.02.2010 11:44 7,4 C 72 % 995,5 hPa 0,0 l/m 40,5 km/h (6 Bft) W 265 0 min 0 W/m 2,7 C -5,0 C 40,5 km/h (6 Bft)
27.02.2010 11:49 7,5 C 72 % 995,5 hPa 0,0 l/m 37,3 km/h (5 Bft) W-SW 255 0 min 0 W/m 2,8 C -4,4 C 37,3 km/h (5 Bft)
27.02.2010 11:55 7,4 C 73 % 995,5 hPa 0,0 l/m 36,1 km/h (5 Bft) W-SW 255 0 min 0 W/m 2,9 C -4,3 C 36,1 km/h (5 Bft)
27.02.2010 11:59 7,6 C 72 % 995,5 hPa 0,0 l/m 34,1 km/h (5 Bft) W 265 0 min 0 W/m 2,9 C -3,6 C 34,1 km/h (5 Bft)
27.02.2010 12:04 7,5 C 71 % 995,5 hPa 0,0 l/m 40,3 km/h (6 Bft) W 265 0 min 0 W/m 2,6 C -4,9 C 40,3 km/h (6 Bft)
27.02.2010 12:10 7,6 C 72 % 995,5 hPa 0,0 l/m 34,5 km/h (5 Bft) W 260 0 min 0 W/m 2,9 C -3,7 C 34,5 km/h (5 Bft)
27.02.2010 12:14 7,7 C 71 % 995,5 hPa 0,0 l/m 38,2 km/h (6 Bft) W 265 0 min 0 W/m 2,8 C -4,2 C 38,2 km/h (6 Bft)
27.02.2010 12:19 8,0 C 71 % 995,5 hPa 0,0 l/m 32,8 km/h (5 Bft) W 265 0 min 0 W/m 3,1 C -2,8 C 32,8 km/h (5 Bft)
27.02.2010 12:24 8,2 C 70 % 995,5 hPa 0,0 l/m 33,6 km/h (5 Bft) W 265 0 min 0 W/m 3,1 C -2,6 C 33,6 km/h (5 Bft)
27.02.2010 12:29 8,3 C 70 % 995,5 hPa 0,0 l/m 35,6 km/h (5 Bft) W 265 0 min 0 W/m 3,2 C -2,9 C 35,6 km/h (5 Bft)
27.02.2010 12:34 8,7 C 68 % 995,5 hPa 0,0 l/m 31,2 km/h (5 Bft) W 270 0 min 0 W/m 3,1 C -1,4 C 31,2 km/h (5 Bft)
27.02.2010 12:39 8,7 C 69 % 995,5 hPa 0,0 l/m 34,9 km/h (5 Bft) W-SW 255 0 min 0 W/m 3,3 C -2,2 C 34,9 km/h (5 Bft)
27.02.2010 12:45 8,7 C 67 % 995,5 hPa 0,0 l/m 40,2 km/h (6 Bft) W-SW 255 0 min 0 W/m 2,9 C -3,1 C 40,2 km/h (6 Bft)
27.02.2010 12:49 8,3 C 68 % 995,5 hPa 0,0 l/m 35,4 km/h (5 Bft) W-SW 255 0 min 0 W/m 2,7 C -2,8 C 35,4 km/h (5 Bft)
27.02.2010 12:54 8,0 C 70 % 995,5 hPa 0,0 l/m 33,2 km/h (5 Bft) W 265 0 min 0 W/m 2,9 C -2,9 C 33,2 km/h (5 Bft)
27.02.2010 12:59 7,8 C 71 % 995,5 hPa 0,0 l/m 34,9 km/h (5 Bft) W 260 0 min 0 W/m 2,9 C -3,5 C 34,9 km/h (5 Bft)
27.02.2010 13:04 7,7 C 72 % 995,5 hPa 0,0 l/m 39,3 km/h (6 Bft) W 265 0 min 0 W/m 3,0 C -4,4 C 39,3 km/h (6 Bft)
27.02.2010 13:09 7,2 C 74 % 995,5 hPa 0,0 l/m 37,5 km/h (5 Bft) W 260 0 min 0 W/m 2,9 C -4,8 C 37,5 km/h (5 Bft)
27.02.2010 13:14 7,2 C 75 % 995,5 hPa 0,0 l/m 38,5 km/h (6 Bft) W-SW 255 0 min 0 W/m 3,1 C -5,0 C 38,5 km/h (6 Bft)
27.02.2010 13:19 6,9 C 78 % 995,5 hPa 0,0 l/m 28,4 km/h (5 Bft) W 260 0 min 0 W/m 3,3 C -3,3 C 28,4 km/h (5 Bft)
27.02.2010 13:24 6,7 C 80 % 995,5 hPa 0,0 l/m 38,1 km/h (6 Bft) W 265 0 min 0 W/m 3,5 C -5,7 C 38,1 km/h (6 Bft)
27.02.2010 13:30 6,6 C 81 % 995,5 hPa 0,0 l/m 27,6 km/h (5 Bft) W-SW 250 0 min 0 W/m 3,6 C -3,5 C 27,6 km/h (5 Bft)
27.02.2010 13:34 6,5 C 83 % 995,5 hPa 0,0 l/m 29,1 km/h (5 Bft) W-SW 255 0 min 0 W/m 3,8 C -4,0 C 29,1 km/h (5 Bft)
27.02.2010 13:39 6,6 C 83 % 995,5 hPa 0,0 l/m 30,0 km/h (5 Bft) W-SW 250 0 min 0 W/m 3,9 C -4,1 C 30,0 km/h (5 Bft)
27.02.2010 13:44 6,6 C 84 % 995,5 hPa 0,0 l/m 29,4 km/h (5 Bft) W-SW 250 0 min 0 W/m 4,1 C -4,0 C 29,4 km/h (5 Bft)
27.02.2010 13:49 6,6 C 83 % 995,5 hPa 0,0 l/m 30,7 km/h (5 Bft) W-SW 250 0 min 0 W/m 3,9 C -4,3 C 30,7 km/h (5 Bft)
27.02.2010 13:54 6,4 C 84 % 995,5 hPa 0,0 l/m 32,4 km/h (5 Bft) W-SW 255 0 min 0 W/m 3,9 C -5,0 C 32,4 km/h (5 Bft)
27.02.2010 14:00 6,4 C 85 % 995,5 hPa 0,0 l/m 23,5 km/h (4 Bft) W-SW 255 0 min 0 W/m 4,1 C -2,6 C 23,5 km/h (4 Bft)
27.02.2010 14:04 6,4 C 85 % 995,5 hPa 0,0 l/m 34,6 km/h (5 Bft) W 260 0 min 0 W/m 4,1 C -5,4 C 34,6 km/h (5 Bft)
27.02.2010 14:09 6,5 C 86 % 995,5 hPa 0,0 l/m 24,0 km/h (4 Bft) W-SW 250 0 min 0 W/m 4,3 C -2,6 C 24,0 km/h (4 Bft)
27.02.2010 14:15 6,5 C 86 % 995,5 hPa 0,0 l/m 31,0 km/h (5 Bft) W-SW 250 0 min 0 W/m 4,3 C -4,5 C 31,0 km/h (5 Bft)
27.02.2010 14:19 6,4 C 87 % 995,5 hPa 0,0 l/m 24,5 km/h (4 Bft) W-SW 250 0 min 0 W/m 4,4 C -2,9 C 24,5 km/h (4 Bft)
27.02.2010 14:24 6,4 C 87 % 995,5 hPa 0,0 l/m 29,1 km/h (5 Bft) W-SW 245 0 min 0 W/m 4,4 C -4,2 C 29,1 km/h (5 Bft)
27.02.2010 14:29 6,4 C 87 % 995,5 hPa 0,0 l/m 26,3 km/h (4 Bft) W-SW 250 0 min 0 W/m 4,4 C -3,4 C 26,3 km/h (4 Bft)
27.02.2010 14:34 6,3 C 86 % 995,5 hPa 0,0 l/m 25,5 km/h (4 Bft) W-SW 250 0 min 0 W/m 4,1 C -3,3 C 25,5 km/h (4 Bft)
27.02.2010 14:39 6,3 C 86 % 995,5 hPa 0,3 l/m 22,6 km/h (4 Bft) W-SW 250 0 min 0 W/m 4,1 C -2,4 C 22,6 km/h (4 Bft)
27.02.2010 14:45 6,2 C 86 % 995,5 hPa 0,0 l/m 30,1 km/h (5 Bft) W-SW 245 0 min 0 W/m 4,0 C -4,7 C 30,1 km/h (5 Bft)
27.02.2010 14:49 6,2 C 86 % 995,5 hPa 0,0 l/m 22,0 km/h (4 Bft) W-SW 245 0 min 0 W/m 4,0 C -2,3 C 22,0 km/h (4 Bft)
27.02.2010 14:54 6,2 C 86 % 995,5 hPa 0,0 l/m 19,1 km/h (3 Bft) W-SW 240 0 min 0 W/m 4,0 C -1,3 C 19,1 km/h (3 Bft)
27.02.2010 14:59 6,3 C 86 % 995,5 hPa 0,0 l/m 14,2 km/h (3 Bft) W-SW 240 0 min 0 W/m 4,1 C 1,1 C 14,2 km/h (3 Bft)
27.02.2010 15:04 6,4 C 85 % 995,5 hPa 0,0 l/m 11,4 km/h (2 Bft) SW 235 0 min 0 W/m 4,1 C 2,7 C 11,4 km/h (2 Bft)
27.02.2010 15:09 6,4 C 85 % 995,5 hPa 0,0 l/m 15,6 km/h (3 Bft) SW 235 0 min 0 W/m 4,1 C 0,5 C 15,6 km/h (3 Bft)
27.02.2010 15:14 6,5 C 85 % 995,5 hPa 0,0 l/m 13,8 km/h (3 Bft) SW 230 0 min 0 W/m 4,2 C 1,5 C 13,8 km/h (3 Bft)
27.02.2010 15:19 6,5 C 84 % 995,5 hPa 0,0 l/m 17,3 km/h (3 Bft) W-SW 240 0 min 0 W/m 4,0 C -0,2 C 17,3 km/h (3 Bft)
27.02.2010 15:24 6,4 C 84 % 995,5 hPa 0,0 l/m 17,6 km/h (3 Bft) W-SW 240 0 min 0 W/m 3,9 C -0,4 C 17,6 km/h (3 Bft)
27.02.2010 15:30 6,4 C 85 % 995,5 hPa 0,0 l/m 25,1 km/h (4 Bft) W-SW 250 0 min 0 W/m 4,1 C -3,1 C 25,1 km/h (4 Bft)
27.02.2010 15:34 6,4 C 85 % 995,5 hPa 0,0 l/m 23,5 km/h (4 Bft) W-SW 250 0 min 0 W/m 4,1 C -2,6 C 23,5 km/h (4 Bft)
27.02.2010 15:39 6,4 C 85 % 995,5 hPa 0,0 l/m 25,5 km/h (4 Bft) W-SW 250 0 min 0 W/m 4,1 C -3,2 C 25,5 km/h (4 Bft)
27.02.2010 15:44 6,4 C 85 % 995,5 hPa 0,0 l/m 24,0 km/h (4 Bft) W-SW 250 0 min 0 W/m 4,1 C -2,7 C 24,0 km/h (4 Bft)
27.02.2010 15:49 6,5 C 86 % 995,5 hPa 0,0 l/m 22,8 km/h (4 Bft) W-SW 250 0 min 0 W/m 4,3 C -2,2 C 22,8 km/h (4 Bft)
27.02.2010 15:54 6,5 C 86 % 995,5 hPa 0,0 l/m 20,8 km/h (4 Bft) W-SW 240 0 min 0 W/m 4,3 C -1,5 C 20,8 km/h (4 Bft)
27.02.2010 15:59 6,5 C 86 % 995,5 hPa 0,0 l/m 24,0 km/h (4 Bft) W-SW 250 0 min 0 W/m 4,3 C -2,6 C 24,0 km/h (4 Bft)
27.02.2010 16:04 6,5 C 86 % 995,5 hPa 0,0 l/m 25,1 km/h (4 Bft) W-SW 250 0 min 0 W/m 4,3 C -2,9 C 25,1 km/h (4 Bft)
27.02.2010 16:09 6,6 C 86 % 995,5 hPa 0,0 l/m 21,5 km/h (4 Bft) W-SW 240 0 min 0 W/m 4,4 C -1,6 C 21,5 km/h (4 Bft)
27.02.2010 16:14 6,5 C 86 % 995,5 hPa 0,0 l/m 26,1 km/h (4 Bft) W-SW 250 0 min 0 W/m 4,3 C -3,2 C 26,1 km/h (4 Bft)
27.02.2010 16:19 6,5 C 86 % 995,5 hPa 0,0 l/m 19,1 km/h (3 Bft) W-SW 240 0 min 0 W/m 4,3 C -0,9 C 19,1 km/h (3 Bft)
27.02.2010 16:24 6,5 C 85 % 995,5 hPa 0,0 l/m 22,9 km/h (4 Bft) W-SW 250 0 min 0 W/m 4,2 C -2,3 C 22,9 km/h (4 Bft)
27.02.2010 16:30 6,6 C 85 % 995,5 hPa 0,0 l/m 25,8 km/h (4 Bft) W-SW 245 0 min 0 W/m 4,3 C -3,0 C 25,8 km/h (4 Bft)
27.02.2010 16:34 6,6 C 85 % 995,5 hPa 0,0 l/m 25,3 km/h (4 Bft) W-SW 255 0 min 0 W/m 4,3 C -2,9 C 25,3 km/h (4 Bft)
27.02.2010 16:39 6,6 C 86 % 995,5 hPa 0,0 l/m 22,2 km/h (4 Bft) W 260 0 min 0 W/m 4,4 C -1,9 C 22,2 km/h (4 Bft)
27.02.2010 16:44 6,6 C 86 % 995,5 hPa 0,0 l/m 27,6 km/h (5 Bft) W-SW 250 0 min 0 W/m 4,4 C -3,5 C 27,6 km/h (5 Bft)
27.02.2010 16:49 6,5 C 86 % 995,5 hPa 0,0 l/m 28,0 km/h (5 Bft) W-SW 250 0 min 0 W/m 4,3 C -3,8 C 28,0 km/h (5 Bft)
27.02.2010 16:54 6,6 C 87 % 995,5 hPa 0,0 l/m 24,3 km/h (4 Bft) W-SW 250 0 min 0 W/m 4,6 C -2,6 C 24,3 km/h (4 Bft)
27.02.2010 17:00 6,5 C 87 % 995,5 hPa 0,0 l/m 27,5 km/h (5 Bft) W-SW 250 0 min 0 W/m 4,5 C -3,6 C 27,5 km/h (5 Bft)
27.02.2010 17:04 6,5 C 87 % 995,5 hPa 0,0 l/m 23,5 km/h (4 Bft) W-SW 250 0 min 0 W/m 4,5 C -2,4 C 23,5 km/h (4 Bft)
27.02.2010 17:10 6,5 C 87 % 995,5 hPa 0,0 l/m 22,5 km/h (4 Bft) W-SW 250 0 min 0 W/m 4,5 C -2,1 C 22,5 km/h (4 Bft)
27.02.2010 17:14 6,5 C 87 % 995,5 hPa 0,0 l/m 27,0 km/h (5 Bft) W-SW 240 0 min 0 W/m 4,5 C -3,5 C 27,0 km/h (5 Bft)
27.02.2010 17:19 6,5 C 87 % 995,5 hPa 0,0 l/m 25,4 km/h (4 Bft) W-SW 245 0 min 0 W/m 4,5 C -3,0 C 25,4 km/h (4 Bft)
27.02.2010 17:24 6,5 C 87 % 995,5 hPa 0,0 l/m 27,6 km/h (5 Bft) W-SW 250 0 min 0 W/m 4,5 C -3,6 C 27,6 km/h (5 Bft)
27.02.2010 17:29 6,5 C 87 % 995,5 hPa 0,0 l/m 21,5 km/h (4 Bft) W-SW 255 0 min 0 W/m 4,5 C -1,8 C 21,5 km/h (4 Bft)
27.02.2010 17:34 6,5 C 87 % 995,5 hPa 0,0 l/m 24,4 km/h (4 Bft) W-SW 250 0 min 0 W/m 4,5 C -2,7 C 24,4 km/h (4 Bft)
27.02.2010 17:40 6,6 C 87 % 995,5 hPa 0,0 l/m 29,0 km/h (5 Bft) W-SW 250 0 min 0 W/m 4,6 C -3,9 C 29,0 km/h (5 Bft)
27.02.2010 17:44 6,6 C 88 % 995,5 hPa 0,0 l/m 30,7 km/h (5 Bft) W-SW 250 0 min 0 W/m 4,8 C -4,3 C 30,7 km/h (5 Bft)
27.02.2010 17:49 6,6 C 88 % 995,5 hPa 0,0 l/m 23,8 km/h (4 Bft) W-SW 245 0 min 0 W/m 4,8 C -2,4 C 23,8 km/h (4 Bft)
27.02.2010 17:54 6,5 C 89 % 994,5 hPa 0,0 l/m 27,5 km/h (5 Bft) W-SW 245 0 min 0 W/m 4,8 C -3,6 C 27,5 km/h (5 Bft)
27.02.2010 17:59 6,5 C 89 % 994,5 hPa 0,0 l/m 27,1 km/h (5 Bft) W-SW 255 0 min 0 W/m 4,8 C -3,5 C 27,1 km/h (5 Bft)
27.02.2010 18:04 6,4 C 89 % 994,5 hPa 0,3 l/m 26,8 km/h (4 Bft) W-SW 245 0 min 0 W/m 4,7 C -3,6 C 26,8 km/h (4 Bft)
27.02.2010 18:09 6,4 C 89 % 994,5 hPa 0,0 l/m 19,0 km/h (3 Bft) W-SW 245 0 min 0 W/m 4,7 C -1,0 C 19,0 km/h (3 Bft)
27.02.2010 18:14 6,5 C 89 % 994,5 hPa 0,0 l/m 25,8 km/h (4 Bft) W-SW 240 0 min 0 W/m 4,8 C -3,1 C 25,8 km/h (4 Bft)
27.02.2010 18:20 6,4 C 89 % 994,5 hPa 0,0 l/m 25,6 km/h (4 Bft) SW 235 0 min 0 W/m 4,7 C -3,2 C 25,6 km/h (4 Bft)
27.02.2010 18:25 6,4 C 89 % 994,5 hPa 0,0 l/m 20,2 km/h (4 Bft) SW 235 0 min 0 W/m 4,7 C -1,4 C 20,2 km/h (4 Bft)
27.02.2010 18:29 6,5 C 89 % 994,5 hPa 0,0 l/m 26,5 km/h (4 Bft) W-SW 240 0 min 0 W/m 4,8 C -3,3 C 26,5 km/h (4 Bft)
27.02.2010 18:34 6,6 C 89 % 994,5 hPa 0,0 l/m 21,7 km/h (4 Bft) W-SW 240 0 min 0 W/m 4,9 C -1,7 C 21,7 km/h (4 Bft)
27.02.2010 18:39 6,6 C 89 % 994,5 hPa 0,3 l/m 20,0 km/h (4 Bft) SW 235 0 min 0 W/m 4,9 C -1,1 C 20,0 km/h (4 Bft)
27.02.2010 18:44 6,6 C 89 % 994,5 hPa 0,0 l/m 18,4 km/h (3 Bft) SW 235 0 min 0 W/m 4,9 C -0,5 C 18,4 km/h (3 Bft)
27.02.2010 18:50 6,6 C 88 % 994,5 hPa 0,0 l/m 21,7 km/h (4 Bft) SW 235 0 min 0 W/m 4,8 C -1,7 C 21,7 km/h (4 Bft)
27.02.2010 18:54 6,7 C 88 % 994,5 hPa 0,0 l/m 14,1 km/h (3 Bft) SW 235 0 min 0 W/m 4,9 C 1,6 C 14,1 km/h (3 Bft)
27.02.2010 18:59 6,6 C 88 % 994,5 hPa 0,0 l/m 13,2 km/h (3 Bft) SW 225 0 min 0 W/m 4,8 C 1,9 C 13,2 km/h (3 Bft)
27.02.2010 19:04 6,7 C 87 % 994,5 hPa 0,0 l/m 19,7 km/h (3 Bft) SW 235 0 min 0 W/m 4,7 C -0,9 C 19,7 km/h (3 Bft)
27.02.2010 19:09 6,7 C 87 % 994,5 hPa 0,0 l/m 14,6 km/h (3 Bft) SW 230 0 min 0 W/m 4,7 C 1,3 C 14,6 km/h (3 Bft)
27.02.2010 19:14 6,6 C 87 % 994,5 hPa 0,0 l/m 13,7 km/h (3 Bft) SW 230 0 min 0 W/m 4,6 C 1,7 C 13,7 km/h (3 Bft)
27.02.2010 19:19 6,7 C 87 % 994,5 hPa 0,0 l/m 13,7 km/h (3 Bft) SW 220 0 min 0 W/m 4,7 C 1,8 C 13,7 km/h (3 Bft)
27.02.2010 19:24 6,7 C 87 % 994,5 hPa 0,0 l/m 14,4 km/h (3 Bft) SW 225 0 min 0 W/m 4,7 C 1,4 C 14,4 km/h (3 Bft)
27.02.2010 19:30 6,8 C 87 % 994,5 hPa 0,0 l/m 20,3 km/h (4 Bft) SW 235 0 min 0 W/m 4,8 C -1,0 C 20,3 km/h (4 Bft)
27.02.2010 19:34 6,8 C 87 % 994,5 hPa 0,0 l/m 11,5 km/h (2 Bft) SW 230 0 min 0 W/m 4,8 C 3,1 C 11,5 km/h (2 Bft)
27.02.2010 19:39 6,8 C 87 % 994,5 hPa 0,0 l/m 21,7 km/h (4 Bft) SW 230 0 min 0 W/m 4,8 C -1,5 C 21,7 km/h (4 Bft)
27.02.2010 19:44 6,7 C 87 % 994,5 hPa 0,0 l/m 16,6 km/h (3 Bft) SW 235 0 min 0 W/m 4,7 C 0,4 C 16,6 km/h (3 Bft)
27.02.2010 19:49 6,8 C 87 % 994,5 hPa 0,0 l/m 16,9 km/h (3 Bft) SW 235 0 min 0 W/m 4,8 C 0,4 C 16,9 km/h (3 Bft)
27.02.2010 19:55 6,7 C 86 % 994,5 hPa 0,0 l/m 17,5 km/h (3 Bft) SW 235 0 min 0 W/m 4,5 C 0,0 C 17,5 km/h (3 Bft)
27.02.2010 19:59 6,8 C 86 % 994,5 hPa 0,0 l/m 14,3 km/h (3 Bft) SW 230 0 min 0 W/m 4,6 C 1,6 C 14,3 km/h (3 Bft)
27.02.2010 20:04 6,8 C 86 % 994,5 hPa 0,0 l/m 17,0 km/h (3 Bft) SW 235 0 min 0 W/m 4,6 C 0,3 C 17,0 km/h (3 Bft)
27.02.2010 20:10 6,8 C 86 % 994,5 hPa 0,0 l/m 23,5 km/h (4 Bft) W-SW 240 0 min 0 W/m 4,6 C -2,0 C 23,5 km/h (4 Bft)
27.02.2010 20:14 6,8 C 86 % 994,5 hPa 0,0 l/m 18,3 km/h (3 Bft) W-SW 250 0 min 0 W/m 4,6 C -0,2 C 18,3 km/h (3 Bft)
27.02.2010 20:19 6,9 C 85 % 994,5 hPa 0,0 l/m 17,3 km/h (3 Bft) SW 235 0 min 0 W/m 4,6 C 0,3 C 17,3 km/h (3 Bft)
27.02.2010 20:24 6,9 C 85 % 994,5 hPa 0,0 l/m 13,2 km/h (3 Bft) SW 230 0 min 0 W/m 4,6 C 2,3 C 13,2 km/h (3 Bft)
27.02.2010 20:29 6,9 C 85 % 994,5 hPa 0,0 l/m 10,6 km/h (2 Bft) SW 225 0 min 0 W/m 4,6 C 3,8 C 10,6 km/h (2 Bft)
27.02.2010 20:35 7,0 C 85 % 994,5 hPa 0,0 l/m 12,6 km/h (3 Bft) SW 220 0 min 0 W/m 4,7 C 2,7 C 12,6 km/h (3 Bft)
27.02.2010 20:39 7,0 C 85 % 994,5 hPa 0,0 l/m 10,4 km/h (2 Bft) SW 215 0 min 0 W/m 4,7 C 4,0 C 10,4 km/h (2 Bft)
27.02.2010 20:44 7,0 C 85 % 994,5 hPa 0,0 l/m 14,1 km/h (3 Bft) SW 215 0 min 0 W/m 4,7 C 1,9 C 14,1 km/h (3 Bft)
27.02.2010 20:49 7,0 C 85 % 994,5 hPa 0,0 l/m 11,3 km/h (2 Bft) SW 215 0 min 0 W/m 4,7 C 3,5 C 11,3 km/h (2 Bft)
27.02.2010 20:54 6,9 C 85 % 994,5 hPa 0,0 l/m 13,3 km/h (3 Bft) SW 230 0 min 0 W/m 4,6 C 2,2 C 13,3 km/h (3 Bft)
27.02.2010 21:00 6,9 C 85 % 994,5 hPa 0,0 l/m 13,9 km/h (3 Bft) SW 225 0 min 0 W/m 4,6 C 1,9 C 13,9 km/h (3 Bft)
27.02.2010 21:04 6,8 C 85 % 994,5 hPa 0,0 l/m 14,1 km/h (3 Bft) SW 225 0 min 0 W/m 4,5 C 1,7 C 14,1 km/h (3 Bft)
27.02.2010 21:09 6,8 C 86 % 994,5 hPa 0,3 l/m 11,0 km/h (2 Bft) S-SW 210 0 min 0 W/m 4,6 C 3,4 C 11,0 km/h (2 Bft)
27.02.2010 21:15 6,8 C 86 % 994,5 hPa 0,0 l/m 9,8 km/h (2 Bft) SW 220 0 min 0 W/m 4,6 C 4,2 C 9,8 km/h (2 Bft)
27.02.2010 21:19 6,8 C 86 % 994,5 hPa 0,0 l/m 10,6 km/h (2 Bft) S-SW 205 0 min 0 W/m 4,6 C 3,7 C 10,6 km/h (2 Bft)
27.02.2010 21:24 6,8 C 86 % 994,5 hPa 0,0 l/m 7,8 km/h (2 Bft) S-SW 205 0 min 0 W/m 4,6 C 5,6 C 7,8 km/h (2 Bft)
27.02.2010 21:29 6,8 C 86 % 994,5 hPa 0,0 l/m 5,9 km/h (2 Bft) S 190 0 min 0 W/m 4,6 C 6,8 C 5,9 km/h (2 Bft)
27.02.2010 21:34 6,8 C 86 % 994,5 hPa 0,0 l/m 6,8 km/h (2 Bft) S-SW 205 0 min 0 W/m 4,6 C 6,5 C 6,8 km/h (2 Bft)
27.02.2010 21:40 6,8 C 86 % 994,5 hPa 0,0 l/m 7,8 km/h (2 Bft) S-SW 195 0 min 0 W/m 4,6 C 5,6 C 7,8 km/h (2 Bft)
27.02.2010 21:44 6,8 C 86 % 994,5 hPa 0,0 l/m 7,0 km/h (2 Bft) S-SW 205 0 min 0 W/m 4,6 C 6,3 C 7,0 km/h (2 Bft)
27.02.2010 21:49 6,8 C 87 % 994,5 hPa 0,0 l/m 5,2 km/h (1 Bft) S-SW 210 0 min 0 W/m 4,8 C 6,8 C 5,2 km/h (1 Bft)
27.02.2010 21:54 6,8 C 87 % 994,5 hPa 0,3 l/m 7,1 km/h (2 Bft) S 180 0 min 0 W/m 4,8 C 6,2 C 7,1 km/h (2 Bft)
27.02.2010 21:59 6,8 C 87 % 994,5 hPa 0,0 l/m 9,1 km/h (2 Bft) S 185 0 min 0 W/m 4,8 C 4,7 C 9,1 km/h (2 Bft)
27.02.2010 22:04 6,8 C 87 % 994,5 hPa 0,0 l/m 6,2 km/h (2 Bft) S 180 0 min 0 W/m 4,8 C 6,8 C 6,2 km/h (2 Bft)
27.02.2010 22:09 6,7 C 87 % 994,5 hPa 0,0 l/m 7,4 km/h (2 Bft) S 180 0 min 0 W/m 4,7 C 5,9 C 7,4 km/h (2 Bft)
27.02.2010 22:14 6,7 C 87 % 994,5 hPa 0,0 l/m 4,4 km/h (1 Bft) S 175 0 min 0 W/m 4,7 C 6,7 C 4,4 km/h (1 Bft)
27.02.2010 22:20 6,6 C 87 % 994,5 hPa 0,0 l/m 10,5 km/h (2 Bft) S 180 0 min 0 W/m 4,6 C 3,5 C 10,5 km/h (2 Bft)
27.02.2010 22:24 6,5 C 87 % 994,5 hPa 0,0 l/m 8,7 km/h (2 Bft) S 190 0 min 0 W/m 4,5 C 4,6 C 8,7 km/h (2 Bft)
27.02.2010 22:29 6,5 C 87 % 994,5 hPa 0,0 l/m 8,2 km/h (2 Bft) S 170 0 min 0 W/m 4,5 C 5,0 C 8,2 km/h (2 Bft)
27.02.2010 22:34 6,4 C 87 % 993,5 hPa 0,0 l/m 10,3 km/h (2 Bft) S-SO 160 0 min 0 W/m 4,4 C 3,4 C 10,3 km/h (2 Bft)
27.02.2010 22:39 6,4 C 87 % 993,5 hPa 0,0 l/m 8,7 km/h (2 Bft) S-SO 165 0 min 0 W/m 4,4 C 4,5 C 8,7 km/h (2 Bft)
27.02.2010 22:45 6,4 C 87 % 993,5 hPa 0,0 l/m 11,3 km/h (2 Bft) S-SO 165 0 min 0 W/m 4,4 C 2,8 C 11,3 km/h (2 Bft)
27.02.2010 22:49 6,3 C 87 % 993,5 hPa 0,0 l/m 11,5 km/h (2 Bft) S 175 0 min 0 W/m 4,3 C 2,6 C 11,5 km/h (2 Bft)
27.02.2010 22:54 6,3 C 88 % 993,5 hPa 0,0 l/m 11,2 km/h (2 Bft) S-SO 165 0 min 0 W/m 4,5 C 2,7 C 11,2 km/h (2 Bft)
27.02.2010 22:59 6,3 C 88 % 993,5 hPa 0,0 l/m 11,6 km/h (2 Bft) S 170 0 min 0 W/m 4,5 C 2,5 C 11,6 km/h (2 Bft)
27.02.2010 23:04 6,2 C 88 % 993,5 hPa 0,0 l/m 10,8 km/h (2 Bft) S 170 0 min 0 W/m 4,4 C 2,9 C 10,8 km/h (2 Bft)
27.02.2010 23:09 6,2 C 88 % 993,5 hPa 0,0 l/m 9,0 km/h (2 Bft) S 170 0 min 0 W/m 4,4 C 4,1 C 9,0 km/h (2 Bft)
27.02.2010 23:14 6,2 C 88 % 993,5 hPa 0,0 l/m 8,1 km/h (2 Bft) S 180 0 min 0 W/m 4,4 C 4,8 C 8,1 km/h (2 Bft)
27.02.2010 23:20 6,2 C 87 % 993,5 hPa 0,0 l/m 10,9 km/h (2 Bft) S 185 0 min 0 W/m 4,2 C 2,8 C 10,9 km/h (2 Bft)
27.02.2010 23:24 6,2 C 88 % 993,5 hPa 0,0 l/m 7,9 km/h (2 Bft) S-SO 165 0 min 0 W/m 4,4 C 4,9 C 7,9 km/h (2 Bft)
27.02.2010 23:29 6,2 C 88 % 993,5 hPa 0,0 l/m 12,2 km/h (2 Bft) S-SO 165 0 min 0 W/m 4,4 C 2,0 C 12,2 km/h (2 Bft)
27.02.2010 23:34 6,2 C 88 % 993,5 hPa 0,0 l/m 9,4 km/h (2 Bft) S-SO 160 0 min 0 W/m 4,4 C 3,8 C 9,4 km/h (2 Bft)
27.02.2010 23:39 6,2 C 88 % 993,5 hPa 0,0 l/m 8,8 km/h (2 Bft) S-SO 160 0 min 0 W/m 4,4 C 4,2 C 8,8 km/h (2 Bft)
27.02.2010 23:44 6,1 C 88 % 993,5 hPa 0,0 l/m 11,1 km/h (2 Bft) S-SO 160 0 min 0 W/m 4,3 C 2,6 C 11,1 km/h (2 Bft)
27.02.2010 23:49 6,1 C 88 % 993,5 hPa 0,0 l/m 8,5 km/h (2 Bft) S-SO 155 0 min 0 W/m 4,3 C 4,4 C 8,5 km/h (2 Bft)
27.02.2010 23:55 6,1 C 88 % 992,5 hPa 0,0 l/m 11,4 km/h (2 Bft) S-SO 160 0 min 0 W/m 4,3 C 2,4 C 11,4 km/h (2 Bft)
27.02.2010 23:59 6,1 C 88 % 992,5 hPa 0,0 l/m 8,1 km/h (2 Bft) S-SO 165 0 min 0 W/m 4,3 C 4,7 C 8,1 km/h (2 Bft)
_ Min-Zeit 05:54 12:45 00:00 - 22:14 - - - - 02:59 07:05 22:14
Minimum _ 3,8 C 67 % 990,5 hPa - 4,4 km/h (1 Bft) - - - - 1,2 C -11,7 C 4,4 km/h (1 Bft)
_ Max-Zeit 12:34 17:54 10:25 03:44 07:05 - - 00:00 00:00 18:34 21:29 07:05
Maximum _ 8,7 C 89 % 995,5 hPa 0,3 l/m 50,3 km/h
W (7 Bft)
- - 0 min 0 W/m 4,9 C 6,8 C 50,3 km/h
W (7 Bft)
Durchschnitt _ 5,7 C 83 % 993,7 hPa #3,3 l/m 29,1 km/h (5 Bft) W-SW - #0 min. 0 W/m 3,0 C -4,4 C 29,1 km/h (5 Bft)
copyright by Holger Just